sensor_id;sensor_type;location;lat;lon;timestamp;pressure;altitude;pressure_sealevel;temperature;humidity
26087;BME280;13851;43.434;28.338;2023-01-27T00:00:10;99298.53;;;6.16;100.00
26087;BME280;13851;43.434;28.338;2023-01-27T00:02:42;99550.13;;;7.70;100.00
26087;BME280;13851;43.434;28.338;2023-01-27T00:05:13;99295.31;;;6.29;100.00
26087;BME280;13851;43.434;28.338;2023-01-27T00:07:40;99546.03;;;7.74;100.00
26087;BME280;13851;43.434;28.338;2023-01-27T00:10:14;99524.41;;;7.64;100.00
26087;BME280;13851;43.434;28.338;2023-01-27T00:12:41;99404.53;;;6.99;100.00
26087;BME280;13851;43.434;28.338;2023-01-27T00:15:25;99274.72;;;6.18;100.00
26087;BME280;13851;43.434;28.338;2023-01-27T00:17:51;99537.66;;;7.84;100.00
26087;BME280;13851;43.434;28.338;2023-01-27T00:20:17;99559.78;;;7.97;100.00
26087;BME280;13851;43.434;28.338;2023-01-27T00:23:05;99556.72;;;7.92;100.00
26087;BME280;13851;43.434;28.338;2023-01-27T00:25:53;99556.72;;;7.92;100.00
26087;BME280;13851;43.434;28.338;2023-01-27T00:28:23;99507.53;;;7.61;100.00
26087;BME280;13851;43.434;28.338;2023-01-27T00:30:49;99533.91;;;7.76;100.00
26087;BME280;13851;43.434;28.338;2023-01-27T00:33:15;99538.00;;;7.80;100.00
26087;BME280;13851;43.434;28.338;2023-01-27T00:35:58;99491.16;;;7.61;100.00
26087;BME280;13851;43.434;28.338;2023-01-27T00:38:29;99533.41;;;7.65;100.00
26087;BME280;13851;43.434;28.338;2023-01-27T00:40:55;99544.47;;;7.88;100.00
26087;BME280;13851;43.434;28.338;2023-01-27T00:43:41;99543.28;;;7.90;100.00
26087;BME280;13851;43.434;28.338;2023-01-27T00:46:07;99530.50;;;7.66;100.00
26087;BME280;13851;43.434;28.338;2023-01-27T00:48:33;99536.47;;;7.94;100.00
26087;BME280;13851;43.434;28.338;2023-01-27T00:51:00;99544.97;;;7.91;100.00
26087;BME280;13851;43.434;28.338;2023-01-27T00:53:26;99512.47;;;7.65;100.00
26087;BME280;13851;43.434;28.338;2023-01-27T00:55:51;99566.63;;;7.76;100.00
26087;BME280;13851;43.434;28.338;2023-01-27T00:58:22;99530.19;;;7.61;100.00
26087;BME280;13851;43.434;28.338;2023-01-27T01:00:47;99254.50;;;6.12;100.00
26087;BME280;13851;43.434;28.338;2023-01-27T01:03:13;99518.25;;;7.70;100.00
26087;BME280;13851;43.434;28.338;2023-01-27T01:05:38;99536.16;;;7.73;100.00
26087;BME280;13851;43.434;28.338;2023-01-27T01:08:04;99529.81;;;7.72;100.00
26087;BME280;13851;43.434;28.338;2023-01-27T01:10:29;99532.41;;;7.49;100.00
26087;BME280;13851;43.434;28.338;2023-01-27T01:12:55;99532.22;;;7.75;100.00
26087;BME280;13851;43.434;28.338;2023-01-27T01:15:20;99359.94;;;6.75;100.00
26087;BME280;13851;43.434;28.338;2023-01-27T01:17:46;99505.97;;;7.66;100.00
26087;BME280;13851;43.434;28.338;2023-01-27T01:20:11;99530.03;;;7.54;100.00
26087;BME280;13851;43.434;28.338;2023-01-27T01:22:38;99498.31;;;7.62;100.00
26087;BME280;13851;43.434;28.338;2023-01-27T01:25:04;99525.72;;;7.85;100.00
26087;BME280;13851;43.434;28.338;2023-01-27T01:27:29;99546.34;;;7.95;100.00
26087;BME280;13851;43.434;28.338;2023-01-27T01:29:55;99544.78;;;7.93;100.00
26087;BME280;13851;43.434;28.338;2023-01-27T01:32:20;99518.91;;;7.80;100.00
26087;BME280;13851;43.434;28.338;2023-01-27T01:34:46;99538.50;;;7.92;100.00
26087;BME280;13851;43.434;28.338;2023-01-27T01:37:11;99530.50;;;7.91;100.00
26087;BME280;13851;43.434;28.338;2023-01-27T01:39:37;99268.28;;;6.35;100.00
26087;BME280;13851;43.434;28.338;2023-01-27T01:42:03;99510.72;;;7.89;100.00
26087;BME280;13851;43.434;28.338;2023-01-27T01:44:30;99523.13;;;8.07;100.00
26087;BME280;13851;43.434;28.338;2023-01-27T01:46:55;99509.34;;;8.01;100.00
26087;BME280;13851;43.434;28.338;2023-01-27T01:49:26;99302.47;;;6.87;100.00
26087;BME280;13851;43.434;28.338;2023-01-27T01:51:57;99484.44;;;7.96;100.00
26087;BME280;13851;43.434;28.338;2023-01-27T01:54:43;99468.44;;;7.93;100.00
26087;BME280;13851;43.434;28.338;2023-01-27T01:57:20;99466.94;;;7.82;100.00
26087;BME280;13851;43.434;28.338;2023-01-27T02:00:04;99450.75;;;7.72;100.00
26087;BME280;13851;43.434;28.338;2023-01-27T02:02:34;99480.56;;;7.90;100.00
26087;BME280;13851;43.434;28.338;2023-01-27T02:05:07;99531.81;;;8.03;100.00
26087;BME280;13851;43.434;28.338;2023-01-27T02:10:08;99510.41;;;7.84;100.00
26087;BME280;13851;43.434;28.338;2023-01-27T02:12:36;99501.66;;;7.96;100.00
26087;BME280;13851;43.434;28.338;2023-01-27T02:15:05;99297.19;;;6.77;100.00
26087;BME280;13851;43.434;28.338;2023-01-27T02:17:33;99441.41;;;7.75;100.00
26087;BME280;13851;43.434;28.338;2023-01-27T02:20:11;99255.00;;;6.73;100.00
26087;BME280;13851;43.434;28.338;2023-01-27T02:22:59;99470.25;;;8.08;100.00
26087;BME280;13851;43.434;28.338;2023-01-27T02:27:59;99270.63;;;6.87;100.00
26087;BME280;13851;43.434;28.338;2023-01-27T02:30:25;99476.53;;;8.17;100.00
26087;BME280;13851;43.434;28.338;2023-01-27T02:32:51;99479.44;;;8.16;100.00
26087;BME280;13851;43.434;28.338;2023-01-27T02:35:24;99481.28;;;8.23;100.00
26087;BME280;13851;43.434;28.338;2023-01-27T02:37:51;99230.97;;;6.85;100.00
26087;BME280;13851;43.434;28.338;2023-01-27T02:40:17;99466.72;;;8.47;100.00
26087;BME280;13851;43.434;28.338;2023-01-27T02:42:46;99430.69;;;8.52;100.00
26087;BME280;13851;43.434;28.338;2023-01-27T02:45:12;99467.03;;;8.83;100.00
26087;BME280;13851;43.434;28.338;2023-01-27T02:47:37;99475.53;;;8.89;100.00
26087;BME280;13851;43.434;28.338;2023-01-27T02:50:03;99181.88;;;7.17;100.00
26087;BME280;13851;43.434;28.338;2023-01-27T02:52:30;99361.72;;;8.27;100.00
26087;BME280;13851;43.434;28.338;2023-01-27T02:54:56;99432.66;;;8.66;100.00
26087;BME280;13851;43.434;28.338;2023-01-27T02:57:21;99425.03;;;8.62;100.00
26087;BME280;13851;43.434;28.338;2023-01-27T02:59:49;99432.47;;;8.45;100.00
26087;BME280;13851;43.434;28.338;2023-01-27T03:02:15;99359.09;;;8.11;100.00
26087;BME280;13851;43.434;28.338;2023-01-27T03:04:49;99427.09;;;8.20;100.00
26087;BME280;13851;43.434;28.338;2023-01-27T03:07:17;99008.81;;;5.97;100.00
26087;BME280;13851;43.434;28.338;2023-01-27T03:09:43;99374.22;;;8.21;100.00
26087;BME280;13851;43.434;28.338;2023-01-27T03:12:08;99396.25;;;8.12;100.00
26087;BME280;13851;43.434;28.338;2023-01-27T03:14:50;99377.88;;;8.05;100.00
26087;BME280;13851;43.434;28.338;2023-01-27T03:17:36;99365.59;;;8.10;100.00
26087;BME280;13851;43.434;28.338;2023-01-27T03:20:21;99348.28;;;7.94;100.00
26087;BME280;13851;43.434;28.338;2023-01-27T03:22:47;99370.97;;;8.18;100.00
26087;BME280;13851;43.434;28.338;2023-01-27T03:25:14;99378.69;;;8.14;100.00
26087;BME280;13851;43.434;28.338;2023-01-27T03:27:42;99349.91;;;8.03;100.00
26087;BME280;13851;43.434;28.338;2023-01-27T03:30:10;99344.00;;;7.92;100.00
26087;BME280;13851;43.434;28.338;2023-01-27T03:32:35;99390.47;;;8.15;100.00
26087;BME280;13851;43.434;28.338;2023-01-27T03:35:01;99338.38;;;7.93;100.00
26087;BME280;13851;43.434;28.338;2023-01-27T03:37:31;99360.13;;;8.10;100.00
26087;BME280;13851;43.434;28.338;2023-01-27T03:40:16;99347.50;;;8.08;100.00
26087;BME280;13851;43.434;28.338;2023-01-27T03:43:00;99344.31;;;7.97;100.00
26087;BME280;13851;43.434;28.338;2023-01-27T03:45:51;99344.94;;;8.15;100.00
26087;BME280;13851;43.434;28.338;2023-01-27T03:48:35;99377.69;;;8.07;100.00
26087;BME280;13851;43.434;28.338;2023-01-27T03:51:02;98950.19;;;5.86;100.00
26087;BME280;13851;43.434;28.338;2023-01-27T03:53:28;99333.47;;;8.20;100.00
26087;BME280;13851;43.434;28.338;2023-01-27T03:55:53;99316.94;;;7.90;100.00
26087;BME280;13851;43.434;28.338;2023-01-27T03:58:24;99315.69;;;8.01;100.00
26087;BME280;13851;43.434;28.338;2023-01-27T04:00:54;99323.41;;;8.20;100.00
26087;BME280;13851;43.434;28.338;2023-01-27T04:03:21;99306.34;;;7.95;100.00
26087;BME280;13851;43.434;28.338;2023-01-27T04:06:08;99303.91;;;8.00;100.00
26087;BME280;13851;43.434;28.338;2023-01-27T04:08:55;99333.47;;;8.20;100.00
26087;BME280;13851;43.434;28.338;2023-01-27T04:11:21;99313.97;;;8.00;100.00
26087;BME280;13851;43.434;28.338;2023-01-27T04:14:07;99321.34;;;8.22;100.00
26087;BME280;13851;43.434;28.338;2023-01-27T04:16:33;99330.91;;;8.18;100.00
26087;BME280;13851;43.434;28.338;2023-01-27T04:19:02;99340.13;;;8.17;100.00
26087;BME280;13851;43.434;28.338;2023-01-27T04:21:28;99350.38;;;8.15;100.00
26087;BME280;13851;43.434;28.338;2023-01-27T04:23:58;99361.59;;;8.20;100.00
26087;BME280;13851;43.434;28.338;2023-01-27T04:26:24;99335.75;;;8.08;100.00
26087;BME280;13851;43.434;28.338;2023-01-27T04:28:50;99332.00;;;8.09;100.00
26087;BME280;13851;43.434;28.338;2023-01-27T04:31:16;99358.47;;;8.31;100.00
26087;BME280;13851;43.434;28.338;2023-01-27T04:33:43;99355.94;;;8.30;100.00
26087;BME280;13851;43.434;28.338;2023-01-27T04:36:09;99356.72;;;8.39;100.00
26087;BME280;13851;43.434;28.338;2023-01-27T04:38:34;99117.25;;;7.03;100.00
26087;BME280;13851;43.434;28.338;2023-01-27T04:41:00;99321.75;;;8.42;100.00
26087;BME280;13851;43.434;28.338;2023-01-27T04:43:26;99328.44;;;8.31;100.00
26087;BME280;13851;43.434;28.338;2023-01-27T04:45:54;99315.16;;;8.28;100.00
26087;BME280;13851;43.434;28.338;2023-01-27T04:48:21;99322.97;;;8.40;100.00
26087;BME280;13851;43.434;28.338;2023-01-27T04:50:47;99328.06;;;8.43;100.00
26087;BME280;13851;43.434;28.338;2023-01-27T04:53:12;99283.56;;;8.34;100.00
26087;BME280;13851;43.434;28.338;2023-01-27T04:55:45;99294.22;;;8.52;100.00
26087;BME280;13851;43.434;28.338;2023-01-27T04:58:12;99273.69;;;8.33;100.00
26087;BME280;13851;43.434;28.338;2023-01-27T05:00:38;99281.19;;;8.08;100.00
26087;BME280;13851;43.434;28.338;2023-01-27T05:03:04;99264.53;;;8.26;100.00
26087;BME280;13851;43.434;28.338;2023-01-27T05:05:33;98809.38;;;4.95;100.00
26087;BME280;13851;43.434;28.338;2023-01-27T05:08:06;99295.13;;;8.44;100.00
26087;BME280;13851;43.434;28.338;2023-01-27T05:10:32;99321.16;;;8.55;100.00
26087;BME280;13851;43.434;28.338;2023-01-27T05:12:58;99333.28;;;8.52;100.00
26087;BME280;13851;43.434;28.338;2023-01-27T05:15:26;99165.66;;;7.55;100.00
26087;BME280;13851;43.434;28.338;2023-01-27T05:17:53;99257.38;;;8.25;100.00
26087;BME280;13851;43.434;28.338;2023-01-27T05:20:18;99249.50;;;8.07;100.00
26087;BME280;13851;43.434;28.338;2023-01-27T05:22:44;99319.81;;;8.51;100.00
26087;BME280;13851;43.434;28.338;2023-01-27T05:25:09;99307.66;;;8.76;100.00
26087;BME280;13851;43.434;28.338;2023-01-27T05:27:35;99264.84;;;8.54;100.00
26087;BME280;13851;43.434;28.338;2023-01-27T05:30:01;99224.28;;;8.51;100.00
26087;BME280;13851;43.434;28.338;2023-01-27T05:32:32;99304.84;;;9.22;100.00
26087;BME280;13851;43.434;28.338;2023-01-27T05:34:58;99300.22;;;9.37;100.00
26087;BME280;13851;43.434;28.338;2023-01-27T05:37:23;99289.16;;;9.46;100.00
26087;BME280;13851;43.434;28.338;2023-01-27T05:39:49;99255.59;;;9.52;100.00
26087;BME280;13851;43.434;28.338;2023-01-27T05:42:15;99259.59;;;9.49;100.00
26087;BME280;13851;43.434;28.338;2023-01-27T05:44:40;99170.38;;;9.12;100.00
26087;BME280;13851;43.434;28.338;2023-01-27T05:47:08;99281.03;;;10.18;100.00
26087;BME280;13851;43.434;28.338;2023-01-27T05:49:34;99049.75;;;8.49;100.00
26087;BME280;13851;43.434;28.338;2023-01-27T05:51:59;99226.22;;;9.54;100.00
26087;BME280;13851;43.434;28.338;2023-01-27T05:54:25;99032.53;;;8.19;100.00
26087;BME280;13851;43.434;28.338;2023-01-27T05:56:50;99276.47;;;9.53;100.00
26087;BME280;13851;43.434;28.338;2023-01-27T05:59:16;99214.44;;;9.09;100.00
26087;BME280;13851;43.434;28.338;2023-01-27T06:01:41;99248.00;;;9.03;100.00
26087;BME280;13851;43.434;28.338;2023-01-27T06:04:11;99277.69;;;9.35;100.00
26087;BME280;13851;43.434;28.338;2023-01-27T06:06:39;99276.75;;;9.28;100.00
26087;BME280;13851;43.434;28.338;2023-01-27T06:09:04;99290.59;;;9.12;100.00
26087;BME280;13851;43.434;28.338;2023-01-27T06:11:30;99236.75;;;8.83;100.00
26087;BME280;13851;43.434;28.338;2023-01-27T06:13:55;99242.63;;;9.09;100.00
26087;BME280;13851;43.434;28.338;2023-01-27T06:16:22;99259.00;;;9.09;100.00
26087;BME280;13851;43.434;28.338;2023-01-27T06:18:50;99245.72;;;8.92;100.00
26087;BME280;13851;43.434;28.338;2023-01-27T06:21:16;99270.03;;;8.87;100.00
26087;BME280;13851;43.434;28.338;2023-01-27T06:23:41;99241.75;;;8.79;100.00
26087;BME280;13851;43.434;28.338;2023-01-27T06:26:09;99253.16;;;8.98;100.00
26087;BME280;13851;43.434;28.338;2023-01-27T06:28:38;99252.91;;;9.07;100.00
26087;BME280;13851;43.434;28.338;2023-01-27T06:31:08;99222.75;;;8.86;100.00
26087;BME280;13851;43.434;28.338;2023-01-27T06:33:34;99289.78;;;8.89;100.00
26087;BME280;13851;43.434;28.338;2023-01-27T06:36:06;99250.38;;;9.06;100.00
26087;BME280;13851;43.434;28.338;2023-01-27T06:38:32;99266.84;;;9.13;100.00
26087;BME280;13851;43.434;28.338;2023-01-27T06:40:59;99289.56;;;9.13;100.00
26087;BME280;13851;43.434;28.338;2023-01-27T06:43:25;99244.41;;;8.88;100.00
26087;BME280;13851;43.434;28.338;2023-01-27T06:45:51;99270.50;;;9.05;100.00
26087;BME280;13851;43.434;28.338;2023-01-27T06:48:23;98928.44;;;7.11;100.00
26087;BME280;13851;43.434;28.338;2023-01-27T06:50:49;99262.50;;;9.18;100.00
26087;BME280;13851;43.434;28.338;2023-01-27T06:53:14;99243.59;;;9.17;100.00
26087;BME280;13851;43.434;28.338;2023-01-27T06:55:40;99068.06;;;8.11;100.00
26087;BME280;13851;43.434;28.338;2023-01-27T06:58:10;99271.56;;;9.33;100.00
26087;BME280;13851;43.434;28.338;2023-01-27T07:00:37;99242.53;;;9.18;100.00
26087;BME280;13851;43.434;28.338;2023-01-27T07:03:03;99221.44;;;8.97;100.00
26087;BME280;13851;43.434;28.338;2023-01-27T07:05:32;99211.91;;;8.93;100.00
26087;BME280;13851;43.434;28.338;2023-01-27T07:07:58;99264.28;;;9.26;100.00
26087;BME280;13851;43.434;28.338;2023-01-27T07:10:24;99093.13;;;8.29;100.00
26087;BME280;13851;43.434;28.338;2023-01-27T07:12:50;99254.41;;;9.25;100.00
26087;BME280;13851;43.434;28.338;2023-01-27T07:15:16;99270.31;;;9.36;100.00
26087;BME280;13851;43.434;28.338;2023-01-27T07:17:44;99230.47;;;9.12;100.00
26087;BME280;13851;43.434;28.338;2023-01-27T07:20:11;99265.69;;;9.36;100.00
26087;BME280;13851;43.434;28.338;2023-01-27T07:22:37;99249.03;;;9.17;100.00
26087;BME280;13851;43.434;28.338;2023-01-27T07:25:03;99243.28;;;9.26;100.00
26087;BME280;13851;43.434;28.338;2023-01-27T07:27:33;99253.28;;;9.49;100.00
26087;BME280;13851;43.434;28.338;2023-01-27T07:29:58;99264.28;;;9.55;100.00
26087;BME280;13851;43.434;28.338;2023-01-27T07:32:24;99262.31;;;9.34;100.00
26087;BME280;13851;43.434;28.338;2023-01-27T07:34:50;99242.53;;;9.32;100.00
26087;BME280;13851;43.434;28.338;2023-01-27T07:37:15;99282.50;;;9.33;100.00
26087;BME280;13851;43.434;28.338;2023-01-27T07:39:41;99274.28;;;9.33;100.00
26087;BME280;13851;43.434;28.338;2023-01-27T07:42:07;99222.56;;;9.17;100.00
26087;BME280;13851;43.434;28.338;2023-01-27T07:44:33;99313.91;;;9.52;100.00
26087;BME280;13851;43.434;28.338;2023-01-27T07:46:59;99122.72;;;8.55;100.00
26087;BME280;13851;43.434;28.338;2023-01-27T07:49:27;99027.72;;;8.06;100.00
26087;BME280;13851;43.434;28.338;2023-01-27T07:51:53;99291.69;;;9.77;100.00
26087;BME280;13851;43.434;28.338;2023-01-27T07:54:18;99247.03;;;9.55;100.00
26087;BME280;13851;43.434;28.338;2023-01-27T07:56:44;99271.34;;;9.79;100.00
26087;BME280;13851;43.434;28.338;2023-01-27T07:59:15;99270.56;;;9.85;100.00
26087;BME280;13851;43.434;28.338;2023-01-27T08:01:40;99300.44;;;9.87;100.00
26087;BME280;13851;43.434;28.338;2023-01-27T08:04:06;99051.69;;;8.11;100.00
26087;BME280;13851;43.434;28.338;2023-01-27T08:06:32;99169.75;;;9.31;100.00
26087;BME280;13851;43.434;28.338;2023-01-27T08:08:57;99259.63;;;9.85;100.00
26087;BME280;13851;43.434;28.338;2023-01-27T08:11:23;99270.19;;;9.88;100.00
26087;BME280;13851;43.434;28.338;2023-01-27T08:13:48;99273.28;;;9.85;100.00
26087;BME280;13851;43.434;28.338;2023-01-27T08:16:16;99237.56;;;9.72;100.00
26087;BME280;13851;43.434;28.338;2023-01-27T08:18:42;99226.84;;;9.56;100.00
26087;BME280;13851;43.434;28.338;2023-01-27T08:21:10;99241.97;;;9.88;100.00
26087;BME280;13851;43.434;28.338;2023-01-27T08:23:36;99253.91;;;10.02;100.00
26087;BME280;13851;43.434;28.338;2023-01-27T08:26:05;99267.31;;;9.97;100.00
26087;BME280;13851;43.434;28.338;2023-01-27T08:28:33;99252.47;;;10.06;100.00
26087;BME280;13851;43.434;28.338;2023-01-27T08:33:31;99250.47;;;9.93;100.00
26087;BME280;13851;43.434;28.338;2023-01-27T08:36:08;99240.09;;;10.10;100.00
26087;BME280;13851;43.434;28.338;2023-01-27T08:38:35;99240.75;;;10.12;100.00
26087;BME280;13851;43.434;28.338;2023-01-27T08:41:18;99241.47;;;10.21;100.00
26087;BME280;13851;43.434;28.338;2023-01-27T08:43:44;99233.84;;;10.16;100.00
26087;BME280;13851;43.434;28.338;2023-01-27T08:46:10;99253.78;;;10.10;100.00
26087;BME280;13851;43.434;28.338;2023-01-27T08:48:36;99036.53;;;8.97;100.00
26087;BME280;13851;43.434;28.338;2023-01-27T08:51:02;99219.13;;;10.17;100.00
26087;BME280;13851;43.434;28.338;2023-01-27T08:53:29;99240.94;;;10.25;100.00
26087;BME280;13851;43.434;28.338;2023-01-27T08:55:56;99206.66;;;10.29;100.00
26087;BME280;13851;43.434;28.338;2023-01-27T08:58:22;99173.66;;;10.16;100.00
26087;BME280;13851;43.434;28.338;2023-01-27T09:00:48;99164.38;;;10.17;100.00
26087;BME280;13851;43.434;28.338;2023-01-27T09:03:14;99029.34;;;9.32;100.00
26087;BME280;13851;43.434;28.338;2023-01-27T09:05:40;99012.00;;;9.04;100.00
26087;BME280;13851;43.434;28.338;2023-01-27T09:08:09;99181.22;;;10.14;100.00
26087;BME280;13851;43.434;28.338;2023-01-27T09:10:37;99176.63;;;10.21;100.00
26087;BME280;13851;43.434;28.338;2023-01-27T09:13:03;99209.13;;;10.24;100.00
26087;BME280;13851;43.434;28.338;2023-01-27T09:15:29;99191.47;;;10.27;100.00
26087;BME280;13851;43.434;28.338;2023-01-27T09:17:55;99227.59;;;10.22;100.00
26087;BME280;13851;43.434;28.338;2023-01-27T09:20:21;99179.91;;;10.31;100.00
26087;BME280;13851;43.434;28.338;2023-01-27T09:22:50;99175.22;;;10.04;100.00
26087;BME280;13851;43.434;28.338;2023-01-27T09:25:16;99174.53;;;10.23;100.00
26087;BME280;13851;43.434;28.338;2023-01-27T09:27:44;98928.81;;;8.85;100.00
26087;BME280;13851;43.434;28.338;2023-01-27T09:30:11;99152.50;;;10.25;100.00
26087;BME280;13851;43.434;28.338;2023-01-27T09:32:37;99141.34;;;10.26;100.00
26087;BME280;13851;43.434;28.338;2023-01-27T09:35:09;99135.03;;;10.26;100.00
26087;BME280;13851;43.434;28.338;2023-01-27T09:37:39;99039.22;;;9.76;100.00
26087;BME280;13851;43.434;28.338;2023-01-27T09:43:31;99081.66;;;10.43;100.00
26087;BME280;13851;43.434;28.338;2023-01-27T10:19:16;99097.06;;;10.23;100.00
26087;BME280;13851;43.434;28.338;2023-01-27T10:27:22;99080.97;;;10.13;100.00
26087;BME280;13851;43.434;28.338;2023-01-27T10:35:36;99089.44;;;10.18;100.00
26087;BME280;13851;43.434;28.338;2023-01-27T10:49:51;99091.41;;;10.03;100.00
26087;BME280;13851;43.434;28.338;2023-01-27T10:52:46;99086.88;;;10.10;100.00
26087;BME280;13851;43.434;28.338;2023-01-27T10:55:18;98827.72;;;8.57;100.00
26087;BME280;13851;43.434;28.338;2023-01-27T10:58:00;99075.06;;;10.09;100.00
26087;BME280;13851;43.434;28.338;2023-01-27T11:00:37;99039.97;;;9.92;100.00
26087;BME280;13851;43.434;28.338;2023-01-27T11:03:09;99089.44;;;10.18;100.00
26087;BME280;13851;43.434;28.338;2023-01-27T11:05:39;99028.72;;;10.08;100.00
26087;BME280;13851;43.434;28.338;2023-01-27T11:08:12;99061.41;;;10.37;100.00
26087;BME280;13851;43.434;28.338;2023-01-27T11:10:45;98948.97;;;9.76;100.00
26087;BME280;13851;43.434;28.338;2023-01-27T11:13:32;99057.75;;;10.58;100.00
26087;BME280;13851;43.434;28.338;2023-01-27T11:15:59;99044.72;;;10.60;100.00
26087;BME280;13851;43.434;28.338;2023-01-27T11:18:32;99075.50;;;10.69;100.00
26087;BME280;13851;43.434;28.338;2023-01-27T11:21:03;99032.09;;;10.66;100.00
26087;BME280;13851;43.434;28.338;2023-01-27T11:23:41;99037.00;;;10.77;100.00
26087;BME280;13851;43.434;28.338;2023-01-27T11:26:29;99042.34;;;10.99;100.00
26087;BME280;13851;43.434;28.338;2023-01-27T11:32:10;99023.41;;;11.10;100.00
26087;BME280;13851;43.434;28.338;2023-01-27T11:35:09;99055.44;;;11.10;100.00
26087;BME280;13851;43.434;28.338;2023-01-27T11:37:49;99007.63;;;11.19;100.00
26087;BME280;13851;43.434;28.338;2023-01-27T11:40:38;98989.28;;;11.19;100.00
26087;BME280;13851;43.434;28.338;2023-01-27T11:43:05;98982.31;;;11.30;100.00
26087;BME280;13851;43.434;28.338;2023-01-27T11:45:34;98989.75;;;11.36;100.00
26087;BME280;13851;43.434;28.338;2023-01-27T11:48:01;98754.66;;;9.98;100.00
26087;BME280;13851;43.434;28.338;2023-01-27T11:50:32;98873.63;;;10.56;100.00
26087;BME280;13851;43.434;28.338;2023-01-27T11:56:13;98980.81;;;11.08;100.00
26087;BME280;13851;43.434;28.338;2023-01-27T11:59:10;98974.50;;;11.14;100.00
26087;BME280;13851;43.434;28.338;2023-01-27T12:05:00;98940.09;;;10.91;100.00
26087;BME280;13851;43.434;28.338;2023-01-27T12:07:54;98970.25;;;11.05;100.00
26087;BME280;13851;43.434;28.338;2023-01-27T12:10:32;98957.19;;;11.00;100.00
26087;BME280;13851;43.434;28.338;2023-01-27T12:15:51;98957.31;;;10.65;100.00
26087;BME280;13851;43.434;28.338;2023-01-27T12:18:18;98922.94;;;10.70;100.00
26087;BME280;13851;43.434;28.338;2023-01-27T12:20:46;98950.75;;;10.66;100.00
26087;BME280;13851;43.434;28.338;2023-01-27T12:23:23;98725.31;;;9.65;100.00
26087;BME280;13851;43.434;28.338;2023-01-27T12:25:56;98871.50;;;10.52;100.00
26087;BME280;13851;43.434;28.338;2023-01-27T12:28:23;98953.38;;;10.94;100.00
26087;BME280;13851;43.434;28.338;2023-01-27T12:30:51;98716.19;;;9.45;100.00
26087;BME280;13851;43.434;28.338;2023-01-27T12:33:26;98928.84;;;10.66;100.00
26087;BME280;13851;43.434;28.338;2023-01-27T12:36:00;98872.13;;;10.40;100.00
26087;BME280;13851;43.434;28.338;2023-01-27T12:38:32;98781.56;;;9.87;100.00
26087;BME280;13851;43.434;28.338;2023-01-27T12:41:11;98906.50;;;10.63;100.00
26087;BME280;13851;43.434;28.338;2023-01-27T12:46:28;98677.59;;;9.26;100.00
26087;BME280;13851;43.434;28.338;2023-01-27T12:49:12;98904.38;;;10.58;100.00
26087;BME280;13851;43.434;28.338;2023-01-27T12:51:52;98899.28;;;10.49;100.00
26087;BME280;13851;43.434;28.338;2023-01-27T12:54:29;98913.25;;;10.60;100.00
26087;BME280;13851;43.434;28.338;2023-01-27T12:57:10;98921.00;;;10.50;100.00
26087;BME280;13851;43.434;28.338;2023-01-27T12:59:46;98863.72;;;10.07;100.00
26087;BME280;13851;43.434;28.338;2023-01-27T13:04:54;98909.00;;;10.45;100.00
26087;BME280;13851;43.434;28.338;2023-01-27T13:07:24;98943.75;;;10.44;100.00
26087;BME280;13851;43.434;28.338;2023-01-27T13:09:58;98915.25;;;10.32;100.00
26087;BME280;13851;43.434;28.338;2023-01-27T13:12:25;98921.16;;;10.35;100.00
26087;BME280;13851;43.434;28.338;2023-01-27T13:14:58;98923.22;;;10.33;100.00
26087;BME280;13851;43.434;28.338;2023-01-27T13:23:05;98895.78;;;10.20;100.00
26087;BME280;13851;43.434;28.338;2023-01-27T13:28:33;98920.91;;;10.30;100.00
26087;BME280;13851;43.434;28.338;2023-01-27T13:31:07;98915.00;;;10.27;100.00
26087;BME280;13851;43.434;28.338;2023-01-27T13:33:37;98929.13;;;10.30;100.00
26087;BME280;13851;43.434;28.338;2023-01-27T13:36:09;98928.47;;;10.28;100.00
26087;BME280;13851;43.434;28.338;2023-01-27T13:39:12;98882.47;;;10.04;100.00
26087;BME280;13851;43.434;28.338;2023-01-27T13:42:27;98920.47;;;10.27;100.00
26087;BME280;13851;43.434;28.338;2023-01-27T13:47:58;98935.00;;;10.27;100.00
26087;BME280;13851;43.434;28.338;2023-01-27T13:50:29;98925.44;;;10.16;100.00
26087;BME280;13851;43.434;28.338;2023-01-27T13:53:03;98915.56;;;10.15;100.00
26087;BME280;13851;43.434;28.338;2023-01-27T13:58:19;98898.28;;;10.15;100.00
26087;BME280;13851;43.434;28.338;2023-01-27T14:01:00;98906.72;;;10.13;100.00
26087;BME280;13851;43.434;28.338;2023-01-27T14:03:34;98933.78;;;10.30;100.00
26087;BME280;13851;43.434;28.338;2023-01-27T14:09:04;98946.41;;;10.31;100.00
26087;BME280;13851;43.434;28.338;2023-01-27T14:11:41;98989.59;;;10.35;100.00
26087;BME280;13851;43.434;28.338;2023-01-27T14:40:28;98971.56;;;10.20;100.00
26087;BME280;13851;43.434;28.338;2023-01-27T14:45:36;99006.66;;;10.09;100.00
26087;BME280;13851;43.434;28.338;2023-01-27T14:51:43;98999.69;;;10.07;100.00
26087;BME280;13851;43.434;28.338;2023-01-27T14:57:01;98998.47;;;10.09;100.00
26087;BME280;13851;43.434;28.338;2023-01-27T15:05:38;98787.94;;;8.48;100.00
26087;BME280;13851;43.434;28.338;2023-01-27T15:25:31;98991.72;;;9.56;100.00
26087;BME280;13851;43.434;28.338;2023-01-27T15:28:01;99015.03;;;9.73;100.00
26087;BME280;13851;43.434;28.338;2023-01-27T15:30:33;99043.72;;;9.84;100.00
26087;BME280;13851;43.434;28.338;2023-01-27T15:33:01;99043.13;;;9.88;100.00
26087;BME280;13851;43.434;28.338;2023-01-27T15:35:37;99045.03;;;9.88;100.00
26087;BME280;13851;43.434;28.338;2023-01-27T15:41:06;99046.63;;;9.82;100.00
26087;BME280;13851;43.434;28.338;2023-01-27T15:44:02;99049.38;;;9.82;100.00
26087;BME280;13851;43.434;28.338;2023-01-27T15:46:32;99046.88;;;9.87;100.00